Terminal Aerodrome Forecast
Issued by NWS

Home | Current Version | Previous Version | Graphics & Text | Print | Product List | Glossary On
Versions: 1 2 3 4 5 6 7 8 9 10 11 12 13 14
000
FTUS43 KMPX 161123
TAFRWF
TAF
KRWF 161123Z 1612/1712 30008KT P6SM SKC
     FM161600 25008KT P6SM SKC
     FM162300 19013KT P6SM BKN250
     FM170500 19012KT P6SM BKN100=

USA.gov is the U.S. government's official web portal to all federal, state and local government web resources and services.